Time;durP1;ratioP1;P1;durP2;ratioP2;P2;SDS_P1;SDS_P2;PMS_P1;PMS_P2;Temp;Humidity;BMP_temperature;BMP_pressure;BME280_temperature;BME280_humidity;BME280_pressure;Samples;Min_cycle;Max_cycle;Signal;HPM_P1;HPM_P2
2023/10/11 00:00:35;;;;;;;217.40;208.65;;;;;;;20.12;56.11;101383.16;5027211;28;20088;-72
2023/10/11 00:03:32;;;;;;;221.52;212.43;;;;;;;20.12;55.89;101383.16;5017703;28;20390;-73
2023/10/11 00:05:59;;;;;;;209.38;201.02;;;;;;;20.09;55.83;101376.31;5059688;28;20045;-72
2023/10/11 00:08:29;;;;;;;216.05;206.57;;;;;;;20.07;55.90;101373.03;5018628;28;20247;-72
2023/10/11 00:10:59;;;;;;;218.20;209.30;;;;;;;20.08;56.45;101377.41;5023128;28;20465;-72
2023/10/11 00:13:32;;;;;;;218.55;209.77;;;;;;;20.06;56.23;101380.47;5027561;28;20552;-73
2023/10/11 00:16:06;;;;;;;220.35;211.15;;;;;;;20.06;56.32;101369.50;5023560;28;20272;-73
2023/10/11 00:18:34;;;;;;;217.27;208.57;;;;;;;20.07;56.44;101384.00;5031634;28;20039;-73
2023/10/11 00:21:02;;;;;;;219.52;210.32;;;;;;;20.07;56.28;101387.56;5023509;28;20653;-73
2023/10/11 00:23:28;;;;;;;;;;;;;;;20.05;56.60;101376.06;5015705;28;20026;-73
2023/10/11 00:26:02;;;;;;;210.23;201.63;;;;;;;20.06;56.50;101382.41;5013592;28;19963;-73
2023/10/11 00:28:31;;;;;;;214.20;205.43;;;;;;;20.04;56.19;101381.88;5012802;28;20026;-73
2023/10/11 00:31:01;;;;;;;215.98;207.20;;;;;;;20.04;55.91;101379.13;5026853;28;20525;-73
2023/10/11 00:33:28;;;;;;;216.23;207.20;;;;;;;20.02;56.46;101384.88;5030231;28;20026;-74
2023/10/11 00:35:55;;;;;;;217.38;208.52;;;;;;;20.02;56.08;101381.34;5039270;28;20040;-73
2023/10/11 00:38:31;;;;;;;219.63;210.57;;;;;;;20.00;56.29;101376.13;5019602;28;20565;-73
2023/10/11 00:41:12;;;;;;;216.95;207.77;;;;;;;19.99;56.17;101379.19;5033375;28;20034;-73
2023/10/11 00:43:39;;;;;;;222.93;214.05;;;;;;;19.98;56.05;101383.84;5012292;28;20641;-73
2023/10/11 00:46:10;;;;;;;217.27;208.65;;;;;;;19.98;56.29;101372.03;5011844;28;20037;-73
2023/10/11 00:48:37;;;;;;;214.55;205.48;;;;;;;19.97;56.54;101375.91;5012538;28;20069;-75
2023/10/11 00:51:07;;;;;;;218.27;209.43;;;;;;;19.95;55.65;101367.13;5017236;28;20496;-74
2023/10/11 00:53:34;;;;;;;219.48;209.95;;;;;;;19.93;56.28;101361.13;5044862;28;20121;-74
2023/10/11 00:56:02;;;;;;;223.48;214.38;;;;;;;19.92;55.72;101368.53;5011538;28;20045;-74
2023/10/11 00:58:28;;;;;;;212.00;203.43;;;;;;;19.91;56.22;101360.59;5012254;28;20034;-74
2023/10/11 01:00:53;;;;;;;214.77;206.00;;;;;;;19.91;56.19;101366.06;5011817;28;20026;-74
2023/10/11 01:03:21;;;;;;;216.32;207.38;;;;;;;19.89;56.50;101369.94;5015115;28;20075;-74
2023/10/11 01:05:48;;;;;;;215.23;206.50;;;;;;;19.90;56.02;101368.00;5029098;28;20478;-74
2023/10/11 01:08:14;;;;;;;228.00;218.38;;;;;;;19.90;56.09;101373.50;5019648;28;20057;-74
2023/10/11 01:10:45;;;;;;;216.63;207.85;;;;;;;19.88;56.56;101368.31;5031148;28;20033;-73
2023/10/11 01:13:11;;;;;;;214.98;205.75;;;;;;;19.88;56.09;101371.06;5030488;28;20124;-73
2023/10/11 01:15:37;;;;;;;211.45;202.85;;;;;;;19.88;56.26;101364.72;5019582;28;20029;-73
2023/10/11 01:18:03;;;;;;;214.57;205.77;;;;;;;19.85;56.24;101368.88;5049700;28;20056;-73
2023/10/11 01:20:31;;;;;;;210.20;201.65;;;;;;;19.86;56.43;101365.03;5026660;28;20043;-73
2023/10/11 01:22:57;;;;;;;211.88;203.40;;;;;;;19.85;56.52;101357.09;5030033;28;20041;-73
2023/10/11 01:25:22;;;;;;;209.55;201.00;;;;;;;19.87;56.47;101365.84;5030366;28;20351;-73
2023/10/11 01:27:48;;;;;;;212.48;203.77;;;;;;;19.87;56.42;101363.91;5023484;28;20041;-74
2023/10/11 01:30:14;;;;;;;209.85;201.25;;;;;;;19.85;56.03;101355.16;5016693;28;20419;-73
2023/10/11 01:32:43;;;;;;;212.98;204.10;;;;;;;19.85;56.45;101359.84;5028767;28;20021;-73
2023/10/11 01:35:21;;;;;;;212.85;204.27;;;;;;;19.83;56.46;101365.63;5029971;28;20042;-73
2023/10/11 01:37:48;;;;;;;208.13;199.73;;;;;;;19.81;56.10;101351.38;5019116;28;20037;-74
2023/10/11 01:40:20;;;;;;;210.20;201.10;;;;;;;19.80;56.29;101352.47;5036055;28;20034;-72
2023/10/11 01:42:51;;;;;;;206.85;198.05;;;;;;;19.80;56.61;101360.69;5019119;28;20061;-73
2023/10/11 01:45:22;;;;;;;211.90;202.68;;;;;;;19.81;56.60;101345.09;5029886;28;20030;-73
2023/10/11 01:47:50;;;;;;;210.60;202.20;;;;;;;19.79;56.07;101342.63;5029778;28;20032;-73
2023/10/11 01:50:19;;;;;;;211.48;202.85;;;;;;;19.77;56.43;101336.63;5030869;28;20033;-73
2023/10/11 01:52:47;;;;;;;210.25;201.57;;;;;;;19.77;56.01;101331.13;5019982;28;20030;-74
2023/10/11 01:55:14;;;;;;;212.85;203.98;;;;;;;19.76;56.28;101331.44;5011287;28;20034;-73
2023/10/11 01:57:45;;;;;;;213.10;203.75;;;;;;;19.74;56.09;101323.50;5011603;28;20042;-74
2023/10/11 02:00:14;;;;;;;210.50;202.05;;;;;;;19.74;56.00;101317.22;5020957;28;20064;-75
2023/10/11 02:02:55;;;;;;;215.93;206.82;;;;;;;19.73;56.35;101316.41;5030171;28;20036;-73
2023/10/11 02:05:22;;;;;;;209.88;201.30;;;;;;;19.72;56.09;101317.47;5026444;28;20089;-73
2023/10/11 02:07:47;;;;;;;215.13;206.23;;;;;;;19.71;56.43;101313.13;5021270;28;20053;-74
2023/10/11 02:10:13;;;;;;;215.20;206.63;;;;;;;19.71;56.18;101307.63;5029096;28;20116;-74
2023/10/11 02:12:45;;;;;;;211.35;202.90;;;;;;;19.71;56.36;101306.81;5023573;28;20156;-75
2023/10/11 02:15:28;;;;;;;211.85;203.07;;;;;;;19.70;56.07;101311.47;5026229;28;20268;-74
2023/10/11 02:17:57;;;;;;;208.68;200.18;;;;;;;19.69;56.54;101306.28;5027438;28;20037;-74
2023/10/11 02:20:23;;;;;;;209.52;200.95;;;;;;;19.67;55.89;101310.13;5029396;28;20056;-73
2023/10/11 02:22:52;;;;;;;211.38;202.77;;;;;;;19.66;56.26;101313.97;5029595;28;20370;-73
2023/10/11 02:25:24;;;;;;;211.35;202.70;;;;;;;19.66;56.07;101302.19;5022896;28;20462;-73
2023/10/11 02:27:50;;;;;;;210.40;201.50;;;;;;;19.64;56.48;101304.38;5031044;28;20029;-73
2023/10/11 02:30:27;;;;;;;212.48;203.73;;;;;;;19.64;56.60;101305.19;5032439;28;20037;-73
2023/10/11 02:32:58;;;;;;;208.77;200.10;;;;;;;19.62;56.06;101301.94;5031263;28;20059;-74
2023/10/11 02:35:29;;;;;;;209.38;200.85;;;;;;;19.62;56.16;101301.13;5026461;28;20034;-73
2023/10/11 02:37:59;;;;;;;213.73;204.93;;;;;;;19.61;56.22;101299.50;5017529;28;20037;-73
2023/10/11 02:40:24;;;;;;;211.10;201.93;;;;;;;19.59;56.24;101288.81;5023681;28;20056;-73
2023/10/11 02:42:56;;;;;;;210.07;201.50;;;;;;;19.59;56.20;101298.97;5022709;28;20033;-73
2023/10/11 02:45:22;;;;;;;208.02;199.60;;;;;;;19.59;56.06;101293.47;5017865;28;20529;-73
2023/10/11 02:47:59;;;;;;;209.98;201.00;;;;;;;19.59;56.58;101307.19;5014661;28;20033;-73
2023/10/11 02:50:28;;;;;;;203.40;194.98;;;;;;;19.58;56.06;101302.78;5014692;28;20130;-73
2023/10/11 02:52:59;;;;;;;208.82;200.15;;;;;;;19.57;56.42;101295.69;5018164;28;20029;-74
2023/10/11 02:55:27;;;;;;;204.10;195.68;;;;;;;19.55;56.47;101290.47;5014749;28;20026;-73
2023/10/11 02:58:21;;;;;;;211.00;202.50;;;;;;;19.53;56.47;101281.75;5025859;28;20120;-73
2023/10/11 03:00:43;;;;;;;206.93;197.82;;;;;;;19.52;56.08;101276.56;5013978;28;20045;-73
2023/10/11 03:03:15;;;;;;;207.68;198.88;;;;;;;19.50;56.63;101274.09;5014361;28;20532;-75
2023/10/11 03:05:41;;;;;;;206.75;198.38;;;;;;;19.50;56.45;101276.03;5033271;28;20041;-73
2023/10/11 03:08:17;;;;;;;211.65;202.93;;;;;;;19.48;56.50;101273.59;5026249;28;20132;-73
2023/10/11 03:10:44;;;;;;;207.50;198.40;;;;;;;19.48;56.08;101270.00;5039512;28;20029;-73
2023/10/11 03:13:24;;;;;;;207.95;199.43;;;;;;;19.46;56.17;101282.09;5037726;28;20053;-73
2023/10/11 03:15:55;;;;;;;207.48;198.82;;;;;;;19.45;56.09;101272.25;5020966;28;20096;-73
2023/10/11 03:18:25;;;;;;;211.60;202.90;;;;;;;19.45;56.61;101274.16;5023374;28;20037;-73
2023/10/11 03:21:15;;;;;;;205.02;196.45;;;;;;;19.43;56.65;101268.97;5031662;28;20029;-73
2023/10/11 03:23:44;;;;;;;206.57;197.77;;;;;;;19.42;56.44;101272.00;5023394;28;20025;-74
2023/10/11 03:26:19;;;;;;;201.20;192.70;;;;;;;19.42;56.53;101272.00;5032914;28;20040;-75
2023/10/11 03:28:57;;;;;;;204.15;195.75;;;;;;;19.41;56.22;101278.59;5026921;28;20474;-72
2023/10/11 03:31:29;;;;;;;203.67;194.97;;;;;;;19.40;56.57;101277.78;5023665;28;20087;-74
2023/10/11 03:34:10;;;;;;;202.70;194.20;;;;;;;19.38;56.49;101265.47;5035676;28;20036;-73
2023/10/11 03:36:43;;;;;;;200.35;192.30;;;;;;;19.36;56.21;101265.75;5045393;28;20427;-74
2023/10/11 03:39:13;;;;;;;205.75;197.30;;;;;;;19.36;56.28;101264.94;5038203;28;20056;-74
2023/10/11 03:41:45;;;;;;;202.55;193.65;;;;;;;19.35;56.57;101261.41;5033386;28;20383;-74
2023/10/11 03:44:11;;;;;;;200.50;192.27;;;;;;;19.34;56.30;101265.22;5030063;28;20121;-74
2023/10/11 03:46:38;;;;;;;205.15;196.63;;;;;;;19.33;56.79;101262.78;5029291;28;20040;-74
2023/10/11 03:50:06;;;;;;;203.52;194.70;;;;;;;19.33;56.68;101268.28;5023367;28;20484;-74
2023/10/11 03:52:00;;;;;;;200.10;191.82;;;;;;;19.30;56.60;101261.41;5032017;28;20041;-74
2023/10/11 03:54:25;;;;;;;200.88;192.38;;;;;;;19.29;56.61;101259.78;5022590;28;20504;-74
2023/10/11 03:56:55;;;;;;;203.40;194.85;;;;;;;19.29;56.27;101256.25;5023122;28;20085;-74
2023/10/11 03:59:24;;;;;;;195.23;187.10;;;;;;;19.28;56.28;101251.84;5016550;28;20042;-75
2023/10/11 04:01:50;;;;;;;200.80;192.30;;;;;;;19.28;56.54;101249.13;5017059;28;20470;-72
2023/10/11 04:04:16;;;;;;;199.35;190.55;;;;;;;19.26;56.77;101243.13;5031779;28;20057;-74
2023/10/11 04:06:42;;;;;;;205.80;197.18;;;;;;;19.25;56.58;101242.28;5025451;28;20104;-74
2023/10/11 04:09:22;;;;;;;201.90;193.45;;;;;;;19.24;56.25;101251.63;5012343;28;20030;-73
2023/10/11 04:11:54;;;;;;;203.35;195.18;;;;;;;19.23;56.33;101247.28;5013143;28;20482;-74
2023/10/11 04:14:44;;;;;;;202.35;194.05;;;;;;;19.21;56.41;101249.47;5012651;28;20030;-74
2023/10/11 04:19:51;;;;;;;204.60;196.10;;;;;;;19.18;56.43;101239.91;5013327;28;20034;-74
2023/10/11 04:22:17;;;;;;;203.02;194.68;;;;;;;19.17;56.67;101238.25;5012610;28;20034;-74
2023/10/11 04:24:47;;;;;;;202.63;194.23;;;;;;;19.16;56.64;101235.81;5012881;28;20034;-73
2023/10/11 04:29:47;;;;;;;199.77;191.48;;;;;;;19.14;56.90;101227.09;5012457;28;20053;-73
2023/10/11 04:32:14;;;;;;;201.07;192.60;;;;;;;19.12;56.54;101221.06;5012219;28;20041;-73
2023/10/11 04:34:48;;;;;;;202.93;194.43;;;;;;;19.11;56.43;101223.00;5023887;28;20029;-74
2023/10/11 04:37:27;;;;;;;199.57;191.27;;;;;;;19.11;56.78;101228.47;5046970;28;20539;-74
2023/10/11 04:42:41;;;;;;;199.63;191.25;;;;;;;19.08;56.48;101236.47;5026781;28;20033;-74
2023/10/11 04:45:07;;;;;;;203.82;195.48;;;;;;;19.05;56.97;101240.59;5026556;28;20029;-75
2023/10/11 04:47:51;;;;;;;200.85;192.77;;;;;;;19.04;56.46;101241.69;5023224;28;20041;-75
2023/10/11 04:50:16;;;;;;;202.70;193.82;;;;;;;19.03;56.99;101248.28;5024838;28;20375;-74
2023/10/11 04:52:48;;;;;;;197.55;189.52;;;;;;;19.01;57.01;101250.47;5020663;28;20041;-74
2023/10/11 04:55:15;;;;;;;198.15;189.82;;;;;;;19.00;56.89;101244.19;5029254;28;20042;-74
2023/10/11 04:57:49;;;;;;;200.20;191.80;;;;;;;19.00;57.00;101246.13;5031034;28;20061;-73
2023/10/11 05:00:18;;;;;;;193.68;185.57;;;;;;;18.98;57.07;101246.38;5030359;28;20137;-74
2023/10/11 05:02:47;;;;;;;195.02;186.88;;;;;;;18.98;57.10;101238.19;5030746;28;20065;-73
2023/10/11 05:05:18;;;;;;;201.32;192.65;;;;;;;18.97;56.95;101238.44;5012232;28;20030;-74
2023/10/11 05:07:46;;;;;;;194.45;186.38;;;;;;;18.96;56.65;101243.13;5025665;28;20742;-73
2023/10/11 05:13:05;;;;;;;194.68;186.60;;;;;;;18.95;57.28;101255.19;5023441;28;20245;-74
2023/10/11 05:15:43;;;;;;;195.68;187.68;;;;;;;18.92;57.10;101258.47;5039620;28;20036;-74
2023/10/11 05:18:18;;;;;;;197.48;189.32;;;;;;;18.91;56.73;101259.59;5025181;28;20041;-74
2023/10/11 05:23:11;;;;;;;196.82;187.90;;;;;;;18.88;57.36;101278.50;5021413;28;20053;-73
2023/10/11 05:25:37;;;;;;;196.03;187.53;;;;;;;18.87;57.10;101263.16;5019761;28;20038;-74
2023/10/11 05:31:00;;;;;;;194.30;186.05;;;;;;;18.85;57.20;101251.69;5028507;28;20041;-76
2023/10/11 05:33:57;;;;;;;194.23;185.75;;;;;;;18.84;57.21;101255.53;5035652;28;20033;-73
2023/10/11 05:52:46;;;;;;;191.70;183.68;;;;;;;18.73;57.09;101272.00;5026539;28;20119;-74
2023/10/11 05:55:12;;;;;;;188.10;180.27;;;;;;;18.73;56.89;101273.94;5012290;28;20462;-77
2023/10/11 05:57:39;;;;;;;194.02;186.07;;;;;;;18.71;57.16;101274.22;5022670;28;20473;-75
2023/10/11 06:00:18;;;;;;;196.60;188.20;;;;;;;18.72;57.34;101269.53;5044651;28;20086;-74
2023/10/11 06:02:43;;;;;;;194.88;186.55;;;;;;;18.70;57.48;101275.31;5026612;28;20037;-76
2023/10/11 06:05:11;;;;;;;190.32;182.38;;;;;;;18.68;57.50;101269.31;5016792;28;20037;-74
2023/10/11 06:07:37;;;;;;;190.68;182.57;;;;;;;18.69;57.40;101265.47;5034764;28;20060;-75
2023/10/11 06:10:07;;;;;;;190.40;182.48;;;;;;;18.69;57.61;101267.38;5023187;28;20033;-74
2023/10/11 06:12:33;;;;;;;190.80;182.93;;;;;;;18.68;57.13;101273.97;5022504;28;20120;-74
2023/10/11 06:15:04;;;;;;;186.77;178.98;;;;;;;18.68;57.19;101276.72;5015957;28;20037;-74
2023/10/11 06:17:41;;;;;;;193.05;184.27;;;;;;;18.67;57.44;101267.69;5015372;28;20036;-75
2023/10/11 06:20:25;;;;;;;191.45;183.35;;;;;;;18.67;57.45;101277.78;5015406;28;20046;-74
2023/10/11 06:22:50;;;;;;;190.10;181.95;;;;;;;18.66;57.14;101267.97;5032721;28;20033;-75
2023/10/11 06:25:23;;;;;;;191.43;182.88;;;;;;;18.64;57.23;101270.16;5018842;28;20068;-74
2023/10/11 06:28:09;;;;;;;189.77;181.70;;;;;;;18.64;57.20;101281.09;5015418;28;20033;-75
2023/10/11 06:30:35;;;;;;;197.68;189.50;;;;;;;18.64;57.63;101275.63;5015067;28;20030;-75
2023/10/11 06:33:05;;;;;;;201.90;193.50;;;;;;;18.65;57.25;101274.50;5025629;28;20056;-75
2023/10/11 06:35:31;;;;;;;191.55;183.32;;;;;;;18.64;57.17;101276.44;5032665;28;20362;-75
2023/10/11 06:37:56;;;;;;;188.57;180.60;;;;;;;18.64;57.34;101272.88;5031269;28;20500;-75
2023/10/11 06:40:47;;;;;;;191.25;182.43;;;;;;;18.64;57.00;101261.94;5037391;28;20069;-74
2023/10/11 06:43:13;;;;;;;187.40;179.77;;;;;;;18.63;57.46;101268.53;5024376;28;20197;-73
2023/10/11 06:45:41;;;;;;;194.32;185.90;;;;;;;18.60;57.60;101276.19;5022298;28;20045;-72
2023/10/11 06:48:13;;;;;;;197.35;188.98;;;;;;;18.60;57.04;101280.88;5029189;28;20088;-73
2023/10/11 06:50:39;;;;;;;192.75;184.30;;;;;;;18.58;57.66;101272.91;5028985;28;20537;-75
2023/10/11 06:53:09;;;;;;;190.07;182.13;;;;;;;18.59;57.55;101277.28;5038513;28;20113;-74
2023/10/11 06:55:36;;;;;;;191.45;183.55;;;;;;;18.58;57.47;101283.88;5030158;28;20033;-74
2023/10/11 06:58:09;;;;;;;195.15;186.75;;;;;;;18.58;57.18;101294.00;5040691;28;20414;-74
2023/10/11 07:00:38;;;;;;;186.73;178.75;;;;;;;18.56;57.61;101291.53;5027695;28;20392;-74
2023/10/11 07:06:00;;;;;;;193.35;184.80;;;;;;;18.53;57.75;101292.09;5025608;28;20037;-75
2023/10/11 07:08:32;;;;;;;188.20;180.35;;;;;;;18.53;57.31;101296.78;5032001;28;20049;-73
2023/10/11 07:11:17;;;;;;;194.90;186.55;;;;;;;18.52;57.62;101304.16;5023345;28;20112;-73
2023/10/11 07:14:05;;;;;;;189.07;181.25;;;;;;;18.50;57.36;101314.56;5020309;28;20033;-74
2023/10/11 07:16:31;;;;;;;190.15;181.73;;;;;;;18.50;57.44;101311.00;5024987;28;20375;-74
2023/10/11 07:18:57;;;;;;;191.68;183.68;;;;;;;18.50;57.75;101319.22;5029484;28;20152;-74
2023/10/11 07:21:26;;;;;;;187.10;179.48;;;;;;;18.49;58.00;101317.56;5029724;28;20131;-74
2023/10/11 07:29:02;;;;;;;196.55;188.20;;;;;;;18.49;58.00;101307.44;5032772;28;20045;-73
2023/10/11 07:31:32;;;;;;;191.30;182.15;;;;;;;18.48;58.05;101302.28;5024522;28;20108;-74
2023/10/11 07:33:59;;;;;;;188.57;180.23;;;;;;;18.48;57.89;101311.28;5026902;28;20042;-74
2023/10/11 07:36:25;;;;;;;190.68;182.60;;;;;;;18.48;58.21;101307.75;5036434;28;20041;-74
2023/10/11 07:38:54;;;;;;;187.38;179.48;;;;;;;18.47;57.95;101315.13;5031453;28;20037;-73
2023/10/11 07:41:27;;;;;;;189.85;181.95;;;;;;;18.48;57.94;101324.16;5030805;28;20116;-75
2023/10/11 07:43:55;;;;;;;185.38;177.25;;;;;;;18.48;57.66;101324.97;5027041;28;20041;-74
2023/10/11 07:46:21;;;;;;;184.52;176.65;;;;;;;18.49;58.02;101326.59;5021257;28;20359;-74
2023/10/11 07:48:46;;;;;;;189.85;181.57;;;;;;;18.50;57.70;101328.25;5019046;28;20048;-74
2023/10/11 07:51:12;;;;;;;188.02;179.40;;;;;;;18.50;58.17;101328.25;5025619;28;20148;-74
2023/10/11 07:53:43;;;;;;;192.93;184.55;;;;;;;18.50;58.04;101313.75;5000300;28;20073;-74
2023/10/11 07:56:09;;;;;;;187.30;179.23;;;;;;;18.51;57.78;101324.41;5017594;28;20029;-75
2023/10/11 07:58:35;;;;;;;190.18;181.63;;;;;;;18.50;58.05;101314.56;5024025;28;20485;-75
2023/10/11 08:01:15;;;;;;;186.32;178.43;;;;;;;18.52;58.18;101317.00;5023205;28;20049;-75
2023/10/11 08:03:44;;;;;;;189.95;181.75;;;;;;;18.51;58.36;101321.66;5021116;28;20037;-74
2023/10/11 08:06:13;;;;;;;185.27;177.38;;;;;;;18.51;57.94;101318.91;5020847;28;20333;-74
2023/10/11 08:08:40;;;;;;;189.07;180.40;;;;;;;18.52;58.19;101320.56;5016080;28;20061;-76
2023/10/11 08:11:18;;;;;;;187.88;179.68;;;;;;;18.51;57.95;101340.00;5002698;28;20072;-75
2023/10/11 08:13:45;;;;;;;;;;;;;;;18.52;58.28;101345.19;5025585;28;20496;-74
2023/10/11 08:16:13;;;;;;;174.48;167.02;;;;;;;18.51;57.78;101343.53;5027440;28;20276;-74
2023/10/11 08:18:39;;;;;;;185.18;176.85;;;;;;;18.52;58.00;101349.81;5021137;28;20478;-74
2023/10/11 08:21:05;;;;;;;188.60;180.10;;;;;;;18.54;58.30;101347.63;5012789;28;20124;-73
2023/10/11 08:23:31;;;;;;;187.80;179.52;;;;;;;18.55;58.36;101341.91;5019999;28;20411;-73
2023/10/11 08:25:57;;;;;;;187.38;179.32;;;;;;;18.57;58.23;101336.13;5016571;28;20147;-73
2023/10/11 08:28:34;;;;;;;186.05;178.10;;;;;;;18.57;58.24;101338.84;5025214;28;20099;-74
2023/10/11 08:30:59;;;;;;;185.05;175.82;;;;;;;18.56;58.07;101338.03;5018832;28;20034;-75
2023/10/11 08:33:25;;;;;;;189.48;181.23;;;;;;;18.57;58.28;101336.13;5016017;28;20061;-74
2023/10/11 08:35:55;;;;;;;187.13;179.00;;;;;;;18.57;58.13;101353.38;5017382;28;20034;-74
2023/10/11 08:38:25;;;;;;;188.45;180.40;;;;;;;18.58;58.48;101340.50;5029382;28;20132;-74
2023/10/11 08:40:58;;;;;;;187.05;178.88;;;;;;;18.59;58.20;101342.94;5022084;28;20125;-74
2023/10/11 08:43:25;;;;;;;189.30;180.80;;;;;;;18.62;58.11;101351.69;5023560;28;20401;-75
2023/10/11 08:46:00;;;;;;;186.02;177.73;;;;;;;18.61;58.38;101359.09;5029449;28;20036;-76
2023/10/11 08:48:27;;;;;;;185.15;177.05;;;;;;;18.63;58.40;101365.09;5022269;28;20487;-73
2023/10/11 08:50:54;;;;;;;185.73;177.13;;;;;;;18.64;58.28;101364.00;5027078;28;20495;-73
2023/10/11 08:53:21;;;;;;;190.07;181.15;;;;;;;18.66;58.07;101372.75;5016337;28;20049;-74
2023/10/11 08:55:54;;;;;;;190.02;181.45;;;;;;;18.68;58.49;101370.56;5027651;28;20033;-75
2023/10/11 08:58:23;;;;;;;195.63;187.10;;;;;;;18.68;58.70;101376.03;5023848;28;20049;-74
2023/10/11 09:00:55;;;;;;;;;;;;;;;18.69;58.35;101363.97;5025832;28;20044;-74
2023/10/11 09:03:26;;;;;;;184.43;175.73;;;;;;;18.70;58.35;101362.06;5011528;28;20011;-74
2023/10/11 09:05:58;;;;;;;185.18;176.63;;;;;;;18.69;58.30;101361.22;5018443;28;20053;-74
2023/10/11 09:08:31;;;;;;;187.02;179.13;;;;;;;18.70;58.35;101353.88;5017391;28;20049;-75
2023/10/11 09:11:32;;;;;;;188.85;180.27;;;;;;;18.71;58.37;101356.31;5013360;28;20056;-74
2023/10/11 09:14:10;;;;;;;192.18;184.02;;;;;;;18.72;58.36;101363.44;5013522;28;20042;-74
2023/10/11 09:16:35;;;;;;;193.52;183.65;;;;;;;18.73;58.56;101365.06;5017847;28;20041;-74
2023/10/11 09:19:05;;;;;;;184.63;176.50;;;;;;;18.74;58.44;101368.59;5018886;28;20034;-76
2023/10/11 09:21:35;;;;;;;198.20;189.65;;;;;;;18.75;58.68;101370.25;5015217;28;20029;-74
2023/10/11 09:24:23;;;;;;;200.02;190.00;;;;;;;18.76;58.37;101372.72;5024327;28;20034;-74
2023/10/11 09:27:10;;;;;;;195.32;186.18;;;;;;;18.78;58.48;101364.25;5027980;28;20632;-74
2023/10/11 09:29:38;;;;;;;195.07;185.82;;;;;;;18.79;58.89;101369.41;5024363;28;20033;-75
2023/10/11 09:32:05;;;;;;;194.85;186.15;;;;;;;18.81;58.93;101377.34;5021765;28;20041;-74
2023/10/11 09:34:31;;;;;;;196.93;187.88;;;;;;;18.81;58.46;101375.44;5024786;28;20040;-74
2023/10/11 09:36:57;;;;;;;201.10;191.35;;;;;;;18.83;58.37;101368.88;5026163;28;20485;-74
2023/10/11 09:39:22;;;;;;;200.73;191.70;;;;;;;18.84;58.69;101370.50;5022834;28;20041;-74
2023/10/11 09:41:53;;;;;;;196.38;187.50;;;;;;;18.84;58.83;101378.72;5028015;28;20025;-75
2023/10/11 09:44:28;;;;;;;203.45;193.27;;;;;;;18.84;58.50;101378.72;5022902;28;20034;-73
2023/10/11 09:46:57;;;;;;;196.35;188.05;;;;;;;18.84;58.61;101373.22;5018123;28;20481;-75
2023/10/11 09:49:26;;;;;;;196.50;187.43;;;;;;;18.85;58.84;101377.59;5026846;28;20196;-74
2023/10/11 09:51:52;;;;;;;193.27;184.85;;;;;;;18.85;58.79;101388.53;5028985;28;20087;-75
2023/10/11 09:54:19;;;;;;;198.15;188.80;;;;;;;18.85;59.48;101386.66;5016738;28;20054;-75
2023/10/11 09:56:50;;;;;;;206.25;195.85;;;;;;;18.86;58.83;101382.00;5017070;28;20482;-74
2023/10/11 09:59:24;;;;;;;202.77;193.60;;;;;;;18.88;59.07;101377.06;5028442;28;20030;-74
2023/10/11 10:02:04;;;;;;;201.80;192.68;;;;;;;18.86;59.42;101371.84;5023896;28;20030;-74
2023/10/11 10:04:57;;;;;;;198.77;189.68;;;;;;;18.87;59.46;101386.34;5021335;28;20116;-76
2023/10/11 10:07:26;;;;;;;190.30;182.27;;;;;;;18.88;59.25;101394.28;5019085;28;20089;-75
2023/10/11 10:09:59;;;;;;;;;;;;;;;18.88;59.43;101398.94;5007539;28;20124;-75
2023/10/11 10:12:26;;;;;;;186.93;177.68;;;;;;;18.87;59.55;101384.41;5022294;28;19917;-75
2023/10/11 10:15:01;;;;;;;195.85;187.18;;;;;;;18.89;59.69;101384.97;5021652;28;20026;-75
2023/10/11 10:17:28;;;;;;;197.25;188.20;;;;;;;18.90;59.18;101386.63;5029492;28;20543;-74
2023/10/11 10:19:59;;;;;;;198.18;188.43;;;;;;;18.92;59.32;101384.38;5028891;28;20120;-75
2023/10/11 10:22:27;;;;;;;191.45;183.50;;;;;;;18.94;59.27;101384.13;5016706;28;20034;-76
2023/10/11 10:24:56;;;;;;;198.43;188.70;;;;;;;18.95;59.39;101377.53;5021177;28;20116;-75
2023/10/11 10:27:33;;;;;;;189.95;181.55;;;;;;;18.96;59.75;101379.19;5020390;28;20042;-75
2023/10/11 10:30:00;;;;;;;197.88;189.07;;;;;;;18.97;59.42;101376.16;5028040;28;20037;-74
2023/10/11 10:32:27;;;;;;;203.57;194.85;;;;;;;18.98;59.55;101379.72;5017574;28;20037;-74
2023/10/11 10:35:20;;;;;;;206.23;196.45;;;;;;;18.99;59.83;101382.16;5024861;28;20080;-74
2023/10/11 10:37:45;;;;;;;199.52;190.73;;;;;;;19.01;59.72;101392.84;5014593;28;20460;-74
2023/10/11 10:40:18;;;;;;;203.57;193.57;;;;;;;19.01;59.79;101385.44;5026315;28;20061;-76
2023/10/11 10:43:07;;;;;;;201.40;191.90;;;;;;;19.05;60.05;101379.38;5023996;28;20045;-73
2023/10/11 10:45:33;;;;;;;;;;;;;;;19.03;59.86;101376.94;5017097;28;20064;-74
2023/10/11 10:48:15;;;;;;;190.50;181.88;;;;;;;19.05;59.76;101390.34;5025556;28;19913;-74
2023/10/11 10:51:01;;;;;;;197.05;187.65;;;;;;;19.06;60.20;101370.09;5028244;28;20034;-74
2023/10/11 10:53:37;;;;;;;191.80;182.15;;;;;;;19.07;60.33;101375.25;5022373;28;20337;-74
2023/10/11 10:56:03;;;;;;;204.50;195.07;;;;;;;19.09;59.87;101372.25;5026348;28;20068;-74
2023/10/11 10:58:28;;;;;;;205.20;195.90;;;;;;;19.11;60.30;101381.00;5024149;28;20065;-75
2023/10/11 11:00:54;;;;;;;200.75;191.60;;;;;;;19.11;60.49;101373.59;5028888;28;20045;-74
2023/10/11 11:03:22;;;;;;;198.48;189.50;;;;;;;19.12;59.80;101375.22;5032471;28;20048;-76
2023/10/11 11:06:01;;;;;;;196.93;188.60;;;;;;;19.11;60.46;101365.38;5012719;28;20026;-75
2023/10/11 11:08:28;;;;;;;203.60;193.55;;;;;;;19.13;60.30;101354.16;5024643;28;20084;-75
2023/10/11 11:11:14;;;;;;;205.68;195.07;;;;;;;19.16;60.04;101356.31;5009160;28;20053;-76
2023/10/11 11:13:40;;;;;;;203.43;193.93;;;;;;;19.16;60.16;101351.66;5025578;28;20029;-77
2023/10/11 11:16:09;;;;;;;201.93;192.85;;;;;;;19.18;60.10;101367.81;5030131;28;20121;-77
2023/10/11 11:18:34;;;;;;;202.93;193.48;;;;;;;19.21;60.21;101361.75;5030315;28;20477;-75
2023/10/11 11:21:18;;;;;;;200.65;191.13;;;;;;;19.21;60.07;101348.88;5031166;28;20034;-75
2023/10/11 11:23:45;;;;;;;202.00;192.25;;;;;;;19.22;60.21;101339.53;5018150;28;20041;-76
2023/10/11 11:26:15;;;;;;;208.35;198.70;;;;;;;19.25;60.42;101346.38;5026913;28;20121;-77
2023/10/11 11:28:45;;;;;;;207.00;197.48;;;;;;;19.26;60.04;101323.38;5021936;28;20042;-75
2023/10/11 11:31:13;;;;;;;206.63;196.77;;;;;;;19.26;60.62;101334.34;5026643;28;20437;-74
2023/10/11 11:33:49;;;;;;;207.52;197.68;;;;;;;19.28;59.98;101326.66;5027706;28;20057;-77
2023/10/11 11:36:31;;;;;;;207.32;197.10;;;;;;;19.29;60.40;101324.72;5027957;28;20041;-75
2023/10/11 11:39:24;;;;;;;214.35;204.23;;;;;;;19.31;60.21;101322.53;5021881;28;20029;-74
2023/10/11 11:41:52;;;;;;;204.25;194.55;;;;;;;19.30;60.33;101324.41;5025357;28;20076;-76
2023/10/11 11:44:27;;;;;;;208.80;199.40;;;;;;;19.32;60.54;101313.19;5026726;28;20098;-75
2023/10/11 11:46:54;;;;;;;209.82;200.75;;;;;;;19.32;60.73;101302.22;5027291;28;20113;-75
2023/10/11 11:49:21;;;;;;;205.98;196.60;;;;;;;19.33;60.70;101301.94;5029345;28;20041;-76
2023/10/11 11:51:51;;;;;;;211.52;201.38;;;;;;;19.34;60.49;101280.84;5026988;28;20034;-75